Time;durP1;ratioP1;P1;durP2;ratioP2;P2;SDS_P1;SDS_P2;PMS_P1;PMS_P2;Temp;Humidity;BMP_temperature;BMP_pressure;BME280_temperature;BME280_humidity;BME280_pressure;Samples;Min_cycle;Max_cycle;Signal;HPM_P1;HPM_P2
2021/08/28 00:02:25;;;;;;;;;;;16.80;92.20;;;;;;4359634;33;43858;-78
2021/08/28 00:04:55;;;;;;;;;;;16.70;92.20;;;;;;4359017;33;44233;-78
2021/08/28 00:07:25;;;;;;;;;;;16.70;92.20;;;;;;4358517;33;43478;-78
2021/08/28 00:09:52;;;;;;;;;;;16.70;92.20;;;;;;4359729;33;43918;-78
2021/08/28 00:12:19;;;;;;;;;;;16.70;92.30;;;;;;4359138;33;45785;-77
2021/08/28 00:14:52;;;;;;;;;;;16.70;92.30;;;;;;4359848;33;43537;-78
2021/08/28 00:17:21;;;;;;;;;;;16.70;92.30;;;;;;4360054;33;43170;-78
2021/08/28 00:19:51;;;;;;;;;;;16.60;92.30;;;;;;4359462;33;43560;-78
2021/08/28 00:22:24;;;;;;;;;;;16.70;92.40;;;;;;4358663;33;43474;-77
2021/08/28 00:24:52;;;;;;;;;;;16.60;92.30;;;;;;4358931;33;45762;-78
2021/08/28 00:27:19;;;;;;;;;;;16.60;92.30;;;;;;4359382;33;43976;-78
2021/08/28 00:29:46;;;;;;;;;;;16.60;92.40;;;;;;4359468;33;42997;-77
2021/08/28 00:32:13;;;;;;;;;;;16.60;92.40;;;;;;4359840;33;42804;-77
2021/08/28 00:34:43;;;;;;;;;;;16.60;92.50;;;;;;4359485;33;44184;-79
2021/08/28 00:37:16;;;;;;;;;;;16.60;92.50;;;;;;4359678;33;44191;-78
2021/08/28 00:39:43;;;;;;;;;;;16.60;92.60;;;;;;4359840;33;42938;-78
2021/08/28 00:42:10;;;;;;;;;;;16.60;92.60;;;;;;4359720;33;43096;-78
2021/08/28 00:44:38;;;;;;;;;;;16.60;92.60;;;;;;4358326;33;43941;-78
2021/08/28 00:47:05;;;;;;;;;;;16.60;92.70;;;;;;4359937;33;43993;-78
2021/08/28 00:49:35;;;;;;;;;;;16.60;92.70;;;;;;4358375;33;45653;-78
2021/08/28 00:52:03;;;;;;;;;;;16.60;92.70;;;;;;4359723;33;43489;-77
2021/08/28 00:54:32;;;;;;;;;;;16.60;92.70;;;;;;4359741;33;43582;-78
2021/08/28 00:57:03;;;;;;;;;;;16.60;92.80;;;;;;4359224;33;42343;-78
2021/08/28 00:59:30;;;;;;;;;;;16.50;92.70;;;;;;4359543;33;44211;-78
2021/08/28 01:02:00;;;;;;;;;;;16.60;92.80;;;;;;4360941;32;20008;-78
2021/08/28 01:04:28;;;;;;;;;;;16.60;92.80;;;;;;4360944;32;43339;-78
2021/08/28 01:06:55;;;;;;;;;;;16.60;92.80;;;;;;4373219;32;43028;-78
2021/08/28 01:09:22;;;;;;;;;;;16.60;92.90;;;;;;4360874;32;43039;-78
2021/08/28 01:11:52;;;;;;;;;;;16.60;92.90;;;;;;4362244;32;42362;-78
2021/08/28 01:14:24;;;;;;;;;;;16.60;92.90;;;;;;4360963;32;44113;-78
2021/08/28 01:16:53;;;;;;;;;;;16.60;92.90;;;;;;4362137;32;44003;-78
2021/08/28 01:19:41;;;;;;;;;;;16.60;92.90;;;;;;4373092;32;44167;-78
2021/08/28 01:22:09;;;;;;;;;;;16.60;93.00;;;;;;4361060;32;43467;-77
2021/08/28 01:24:38;;;;;;;;;;;16.50;92.90;;;;;;4373043;32;44382;-78
2021/08/28 01:27:14;;;;;;;;;;;16.50;93.00;;;;;;4362097;32;44020;-78
2021/08/28 01:29:44;;;;;;;;;;;16.60;93.00;;;;;;4360551;32;43778;-77
2021/08/28 01:32:12;;;;;;;;;;;16.60;93.00;;;;;;4361501;32;20056;-77
2021/08/28 01:34:39;;;;;;;;;;;16.50;93.00;;;;;;4361851;32;45152;-78
2021/08/28 01:37:09;;;;;;;;;;;16.60;93.00;;;;;;4360650;32;43798;-77
2021/08/28 01:39:40;;;;;;;;;;;16.50;93.00;;;;;;4362073;32;43324;-78
2021/08/28 01:42:08;;;;;;;;;;;16.60;93.10;;;;;;4361791;32;42485;-78
2021/08/28 01:44:38;;;;;;;;;;;16.60;93.10;;;;;;4361691;32;43456;-78
2021/08/28 01:47:16;;;;;;;;;;;16.60;93.10;;;;;;4373051;32;43435;-78
2021/08/28 01:49:47;;;;;;;;;;;16.60;93.10;;;;;;4360248;32;42784;-78
2021/08/28 01:52:15;;;;;;;;;;;16.60;93.10;;;;;;4360762;32;44262;-78
2021/08/28 01:54:45;;;;;;;;;;;16.60;93.10;;;;;;4361191;32;43070;-77
2021/08/28 01:57:15;;;;;;;;;;;16.60;93.10;;;;;;4361791;32;43894;-77
2021/08/28 01:59:47;;;;;;;;;;;16.50;93.10;;;;;;4360529;32;43472;-78
2021/08/28 02:02:17;;;;;;;;;;;16.50;93.10;;;;;;4362053;32;20035;-78
2021/08/28 02:04:47;;;;;;;;;;;16.50;93.10;;;;;;4361230;32;44246;-77
2021/08/28 02:07:18;;;;;;;;;;;16.50;93.10;;;;;;4360222;32;43762;-77
2021/08/28 02:09:50;;;;;;;;;;;16.50;93.20;;;;;;4361152;32;42904;-78
2021/08/28 02:12:23;;;;;;;;;;;16.50;93.20;;;;;;4359951;32;43299;-78
2021/08/28 02:14:57;;;;;;;;;;;16.50;93.20;;;;;;4361056;32;43276;-78
2021/08/28 02:17:25;;;;;;;;;;;16.50;93.20;;;;;;4360292;32;44437;-78
2021/08/28 02:19:54;;;;;;;;;;;16.50;93.20;;;;;;4360821;32;42874;-78
2021/08/28 02:22:28;;;;;;;;;;;16.50;93.20;;;;;;4361195;32;43235;-78
2021/08/28 02:25:03;;;;;;;;;;;16.50;93.20;;;;;;4361033;32;42908;-78
2021/08/28 02:27:32;;;;;;;;;;;16.50;93.30;;;;;;4360319;32;43887;-77
2021/08/28 02:30:10;;;;;;;;;;;16.50;93.30;;;;;;4361212;32;43938;-78
2021/08/28 02:32:38;;;;;;;;;;;16.50;93.30;;;;;;4362364;32;20008;-79
2021/08/28 02:35:08;;;;;;;;;;;16.50;93.30;;;;;;4360039;32;44465;-79
2021/08/28 02:37:39;;;;;;;;;;;16.50;93.30;;;;;;4361135;32;43374;-78
2021/08/28 02:40:08;;;;;;;;;;;16.50;93.40;;;;;;4360979;32;44474;-78
2021/08/28 02:42:37;;;;;;;;;;;16.50;93.40;;;;;;4360753;32;44461;-78
2021/08/28 02:45:06;;;;;;;;;;;16.50;93.40;;;;;;4359983;32;43740;-78
2021/08/28 02:47:36;;;;;;;;;;;16.40;93.30;;;;;;4360794;32;43478;-78
2021/08/28 02:50:06;;;;;;;;;;;16.50;93.40;;;;;;4360847;32;42691;-79
2021/08/28 02:52:37;;;;;;;;;;;16.50;93.40;;;;;;4372328;32;42896;-78
2021/08/28 02:55:04;;;;;;;;;;;16.40;93.30;;;;;;4359419;32;43458;-78
2021/08/28 02:57:39;;;;;;;;;;;16.40;93.40;;;;;;4359300;32;43204;-78
2021/08/28 03:00:12;;;;;;;;;;;16.50;93.50;;;;;;4360390;32;43628;-78
2021/08/28 03:02:40;;;;;;;;;;;16.40;93.50;;;;;;4361197;32;20004;-78
2021/08/28 03:05:13;;;;;;;;;;;16.40;93.50;;;;;;4360215;32;42932;-78
2021/08/28 03:07:43;;;;;;;;;;;16.40;93.50;;;;;;4360618;32;45266;-78
2021/08/28 03:10:16;;;;;;;;;;;16.40;93.50;;;;;;4359460;32;43317;-78
2021/08/28 03:12:52;;;;;;;;;;;16.40;93.50;;;;;;4359493;32;43485;-78
2021/08/28 03:15:22;;;;;;;;;;;16.40;93.60;;;;;;4359573;32;43924;-78
2021/08/28 03:17:49;;;;;;;;;;;16.40;93.60;;;;;;4358979;32;43952;-78
2021/08/28 03:20:17;;;;;;;;;;;16.40;93.60;;;;;;4360149;32;44586;-78
2021/08/28 03:22:47;;;;;;;;;;;16.40;94.00;;;;;;4360343;32;43831;-78
2021/08/28 03:25:19;;;;;;;;;;;16.40;93.70;;;;;;4359288;32;43453;-78
2021/08/28 03:27:47;;;;;;;;;;;16.40;93.70;;;;;;4359407;32;43293;-78
2021/08/28 03:30:18;;;;;;;;;;;16.40;93.70;;;;;;4358890;32;43205;-78
2021/08/28 03:32:46;;;;;;;;;;;16.40;93.70;;;;;;4360864;32;19989;-78
2021/08/28 03:35:16;;;;;;;;;;;16.40;93.70;;;;;;4360102;32;42787;-78
2021/08/28 03:37:43;;;;;;;;;;;16.40;93.70;;;;;;4359237;32;43403;-78
2021/08/28 03:40:15;;;;;;;;;;;16.40;93.80;;;;;;4359776;32;42698;-78
2021/08/28 03:42:48;;;;;;;;;;;16.40;93.80;;;;;;4360305;32;43982;-77
2021/08/28 03:45:15;;;;;;;;;;;16.40;93.80;;;;;;4359350;32;43189;-77
2021/08/28 03:47:44;;;;;;;;;;;16.40;93.80;;;;;;4359592;32;42929;-78
2021/08/28 03:50:11;;;;;;;;;;;16.40;93.80;;;;;;4359666;32;44604;-78
2021/08/28 03:52:38;;;;;;;;;;;16.40;93.80;;;;;;4360242;32;44030;-78
2021/08/28 03:55:08;;;;;;;;;;;16.40;93.80;;;;;;4359715;32;44041;-77
2021/08/28 03:57:38;;;;;;;;;;;16.40;93.80;;;;;;4359768;32;44095;-77
2021/08/28 04:00:06;;;;;;;;;;;16.40;93.90;;;;;;4358576;33;43655;-78
2021/08/28 04:02:36;;;;;;;;;;;16.40;93.90;;;;;;4358411;33;44274;-77
2021/08/28 04:05:06;;;;;;;;;;;16.40;93.90;;;;;;4359124;33;43916;-78
2021/08/28 04:07:37;;;;;;;;;;;16.40;94.00;;;;;;4358827;33;44227;-77
2021/08/28 04:10:09;;;;;;;;;;;16.40;94.00;;;;;;4371067;32;43399;-78
2021/08/28 04:12:37;;;;;;;;;;;16.40;94.00;;;;;;4360066;33;45386;-78
2021/08/28 04:15:04;;;;;;;;;;;16.40;94.00;;;;;;4358535;33;43126;-78
2021/08/28 04:17:33;;;;;;;;;;;16.40;94.00;;;;;;4360062;33;44222;-79
2021/08/28 04:20:03;;;;;;;;;;;16.40;94.00;;;;;;4370888;32;44242;-78
2021/08/28 04:22:33;;;;;;;;;;;16.40;94.00;;;;;;4359114;33;42763;-78
2021/08/28 04:25:01;;;;;;;;;;;16.40;94.00;;;;;;4358393;33;44179;-79
2021/08/28 04:27:28;;;;;;;;;;;16.40;94.10;;;;;;4358672;33;43762;-78
2021/08/28 04:29:58;;;;;;;;;;;16.40;94.10;;;;;;4359728;33;43878;-78
2021/08/28 04:32:25;;;;;;;;;;;16.40;94.10;;;;;;4359367;33;43858;-79
2021/08/28 04:34:54;;;;;;;;;;;16.40;94.10;;;;;;4359481;33;43102;-78
2021/08/28 04:37:21;;;;;;;;;;;16.40;94.10;;;;;;4361301;32;43711;-78
2021/08/28 04:39:51;;;;;;;;;;;16.40;94.10;;;;;;4362795;32;46058;-78
2021/08/28 04:42:19;;;;;;;;;;;16.40;94.20;;;;;;4362896;32;43188;-78
2021/08/28 04:44:46;;;;;;;;;;;16.40;94.20;;;;;;4362458;32;43938;-78
2021/08/28 04:47:18;;;;;;;;;;;16.30;94.20;;;;;;4361578;32;43267;-78
2021/08/28 04:49:46;;;;;;;;;;;16.40;94.20;;;;;;4361137;32;43781;-78
2021/08/28 04:52:13;;;;;;;;;;;16.30;94.20;;;;;;4362095;32;43783;-78
2021/08/28 04:54:41;;;;;;;;;;;16.30;94.20;;;;;;4362549;32;44217;-78
2021/08/28 04:57:10;;;;;;;;;;;16.30;94.20;;;;;;4362039;32;43578;-78
2021/08/28 04:59:40;;;;;;;;;;;16.30;94.30;;;;;;4362422;32;44104;-78
2021/08/28 05:02:07;;;;;;;;;;;16.30;94.30;;;;;;4360719;32;42771;-78
2021/08/28 05:04:35;;;;;;;;;;;16.30;94.30;;;;;;4362132;32;44081;-78
2021/08/28 05:07:02;;;;;;;;;;;16.30;94.30;;;;;;4362410;32;43272;-78
2021/08/28 05:09:29;;;;;;;;;;;16.30;94.30;;;;;;4362249;32;43833;-78
2021/08/28 05:11:59;;;;;;;;;;;16.30;94.40;;;;;;4362261;32;43852;-78
2021/08/28 05:14:26;;;;;;;;;;;16.30;94.40;;;;;;4360725;32;43747;-78
2021/08/28 05:16:56;;;;;;;;;;;16.30;94.40;;;;;;4362219;32;43088;-78
2021/08/28 05:19:26;;;;;;;;;;;16.30;94.40;;;;;;4362467;32;43194;-78
2021/08/28 05:21:53;;;;;;;;;;;16.30;94.50;;;;;;4360552;32;43742;-78
2021/08/28 05:24:23;;;;;;;;;;;16.20;94.50;;;;;;4362033;32;42894;-79
2021/08/28 05:26:53;;;;;;;;;;;16.20;94.50;;;;;;4362112;32;44910;-78
2021/08/28 05:29:23;;;;;;;;;;;16.30;94.60;;;;;;4361628;32;45240;-78
2021/08/28 05:31:53;;;;;;;;;;;16.30;94.60;;;;;;4361662;32;42676;-78
2021/08/28 05:34:23;;;;;;;;;;;16.20;94.50;;;;;;4361677;32;20063;-78
2021/08/28 05:36:52;;;;;;;;;;;16.30;94.60;;;;;;4361833;32;44071;-78
2021/08/28 05:39:22;;;;;;;;;;;16.30;94.60;;;;;;4361897;32;44370;-78
2021/08/28 05:41:49;;;;;;;;;;;16.20;94.60;;;;;;4360838;32;44212;-78
2021/08/28 05:44:16;;;;;;;;;;;16.30;94.70;;;;;;4361521;32;42994;-78
2021/08/28 05:46:43;;;;;;;;;;;16.30;94.70;;;;;;4361287;32;44376;-79
2021/08/28 05:49:13;;;;;;;;;;;16.30;94.70;;;;;;4360968;32;43348;-79
2021/08/28 05:51:40;;;;;;;;;;;16.30;94.70;;;;;;4361816;32;42851;-79
2021/08/28 05:54:10;;;;;;;;;;;16.20;94.70;;;;;;4361664;32;44288;-79
2021/08/28 05:56:40;;;;;;;;;;;16.30;94.70;;;;;;4360650;32;44547;-78
2021/08/28 05:59:07;;;;;;;;;;;16.20;94.70;;;;;;4361669;32;43920;-79
2021/08/28 06:01:35;;;;;;;;;;;16.30;94.80;;;;;;4361412;32;44197;-78
2021/08/28 06:04:03;;;;;;;;;;;16.30;94.80;;;;;;4360111;32;42993;-79
2021/08/28 06:06:30;;;;;;;;;;;16.30;94.80;;;;;;4359951;32;43254;-78
2021/08/28 06:09:00;;;;;;;;;;;16.30;94.80;;;;;;4359899;32;42922;-78
2021/08/28 06:11:27;;;;;;;;;;;16.20;94.80;;;;;;4360973;32;43929;-78
2021/08/28 06:13:54;;;;;;;;;;;16.30;94.90;;;;;;4372494;32;44294;-78
2021/08/28 06:16:25;;;;;;;;;;;16.30;94.90;;;;;;4361347;32;44153;-79
2021/08/28 06:18:54;;;;;;;;;;;16.30;94.90;;;;;;4361365;32;43744;-78
2021/08/28 06:21:22;;;;;;;;;;;16.30;94.90;;;;;;4361339;32;43042;-79
2021/08/28 06:23:51;;;;;;;;;;;16.30;94.90;;;;;;4360858;32;43715;-78
2021/08/28 06:26:24;;;;;;;;;;;16.30;94.90;;;;;;4360786;32;42871;-78
2021/08/28 06:28:54;;;;;;;;;;;16.30;94.90;;;;;;4359664;32;43262;-78
2021/08/28 06:31:21;;;;;;;;;;;16.30;95.00;;;;;;4361154;32;44191;-78
2021/08/28 06:33:48;;;;;;;;;;;16.30;95.00;;;;;;4361149;32;43209;-78
2021/08/28 06:36:20;;;;;;;;;;;16.30;95.00;;;;;;4360869;32;42563;-78
2021/08/28 06:38:49;;;;;;;;;;;16.30;95.00;;;;;;4360619;32;42739;-78
2021/08/28 06:41:16;;;;;;;;;;;16.30;95.00;;;;;;4361159;32;44227;-79
2021/08/28 06:43:43;;;;;;;;;;;16.30;95.00;;;;;;4360633;32;44180;-78
2021/08/28 06:46:13;;;;;;;;;;;16.30;95.00;;;;;;4360482;32;43454;-79
2021/08/28 06:48:45;;;;;;;;;;;16.30;95.00;;;;;;4360941;32;43453;-79
2021/08/28 06:51:12;;;;;;;;;;;16.30;95.10;;;;;;4360632;32;42597;-78
2021/08/28 06:53:42;;;;;;;;;;;16.40;95.10;;;;;;4359578;32;43460;-78
2021/08/28 06:56:15;;;;;;;;;;;16.40;95.10;;;;;;4361007;32;43254;-79
2021/08/28 06:58:42;;;;;;;;;;;16.30;95.10;;;;;;4359602;32;44275;-79
2021/08/28 07:01:09;;;;;;;;;;;16.30;95.10;;;;;;4360281;32;42759;-79
2021/08/28 07:03:39;;;;;;;;;;;16.40;95.10;;;;;;4360780;32;45104;-78
2021/08/28 07:06:06;;;;;;;;;;;16.40;95.10;;;;;;4360446;32;43250;-79
2021/08/28 07:08:33;;;;;;;;;;;16.30;95.10;;;;;;4360828;32;43273;-79
2021/08/28 07:11:00;;;;;;;;;;;16.40;95.20;;;;;;4359629;32;43215;-78
2021/08/28 07:13:28;;;;;;;;;;;16.40;95.20;;;;;;4360033;32;43252;-78
2021/08/28 07:15:59;;;;;;;;;;;16.40;95.20;;;;;;4359527;32;43837;-78
2021/08/28 07:18:27;;;;;;;;;;;16.40;95.30;;;;;;4360625;32;44310;-78
2021/08/28 07:20:56;;;;;;;;;;;16.40;95.30;;;;;;4359416;32;44205;-78
2021/08/28 07:23:24;;;;;;;;;;;16.40;95.30;;;;;;4360010;32;43477;-78
2021/08/28 07:25:53;;;;;;;;;;;16.40;95.30;;;;;;4359416;32;43340;-78
2021/08/28 07:28:22;;;;;;;;;;;16.40;95.30;;;;;;4360124;32;43353;-78
2021/08/28 07:30:52;;;;;;;;;;;16.40;95.20;;;;;;4359325;32;44398;-78
2021/08/28 07:33:20;;;;;;;;;;;16.40;95.30;;;;;;4360246;32;44059;-78
2021/08/28 07:35:47;;;;;;;;;;;16.40;95.30;;;;;;4359922;32;44641;-78
2021/08/28 07:38:14;;;;;;;;;;;16.40;95.30;;;;;;4359800;32;43586;-78
2021/08/28 07:40:43;;;;;;;;;;;16.40;95.30;;;;;;4359831;32;43861;-78
2021/08/28 07:43:13;;;;;;;;;;;16.40;95.30;;;;;;4360390;32;44192;-78
2021/08/28 07:45:44;;;;;;;;;;;16.40;95.30;;;;;;4359772;32;44223;-78
2021/08/28 07:48:19;;;;;;;;;;;16.40;95.30;;;;;;4359023;32;43855;-78
2021/08/28 07:50:49;;;;;;;;;;;16.40;95.30;;;;;;4358586;32;42815;-78
2021/08/28 07:53:19;;;;;;;;;;;16.40;95.40;;;;;;4360139;32;44266;-78
2021/08/28 07:55:46;;;;;;;;;;;16.40;95.40;;;;;;4359694;32;42661;-78
2021/08/28 07:58:13;;;;;;;;;;;16.40;95.70;;;;;;4358835;32;44046;-78
2021/08/28 08:00:43;;;;;;;;;;;16.40;95.40;;;;;;4359933;32;44143;-78
2021/08/28 08:03:16;;;;;;;;;;;16.40;95.30;;;;;;4358717;33;43269;-77
2021/08/28 08:05:49;;;;;;;;;;;16.40;95.40;;;;;;4360632;33;20036;-77
2021/08/28 08:08:19;;;;;;;;;;;16.50;95.40;;;;;;4360240;33;43890;-77
2021/08/28 08:10:48;;;;;;;;;;;16.40;95.30;;;;;;4359623;32;43941;-77
2021/08/28 08:13:15;;;;;;;;;;;16.50;95.40;;;;;;4362585;32;44316;-77
2021/08/28 08:15:45;;;;;;;;;;;16.50;95.40;;;;;;4363084;32;43641;-77
2021/08/28 08:18:12;;;;;;;;;;;16.50;95.40;;;;;;4362596;32;43690;-77
2021/08/28 08:20:39;;;;;;;;;;;16.50;95.40;;;;;;4362591;32;42764;-78
2021/08/28 08:23:06;;;;;;;;;;;16.50;95.40;;;;;;4361775;32;44210;-78
2021/08/28 08:25:34;;;;;;;;;;;16.50;95.40;;;;;;4361955;32;43374;-77
2021/08/28 08:28:04;;;;;;;;;;;16.50;95.30;;;;;;4361716;32;42334;-77
2021/08/28 08:30:31;;;;;;;;;;;16.50;95.30;;;;;;4373927;32;42190;-78
2021/08/28 08:32:58;;;;;;;;;;;16.50;95.30;;;;;;4362822;32;42669;-78
2021/08/28 08:35:25;;;;;;;;;;;16.50;95.40;;;;;;4362350;32;42653;-77
2021/08/28 08:37:57;;;;;;;;;;;16.60;95.40;;;;;;4361288;32;42293;-77
2021/08/28 08:40:26;;;;;;;;;;;16.60;95.40;;;;;;4362291;32;43900;-78
2021/08/28 08:42:56;;;;;;;;;;;16.50;95.30;;;;;;4361588;32;43830;-78
2021/08/28 08:45:26;;;;;;;;;;;16.50;95.30;;;;;;4362661;32;44490;-79
2021/08/28 08:47:53;;;;;;;;;;;16.60;95.30;;;;;;4362444;32;43295;-77
2021/08/28 08:50:24;;;;;;;;;;;16.50;95.30;;;;;;4361506;32;43981;-78
2021/08/28 08:52:58;;;;;;;;;;;16.50;95.30;;;;;;4362203;32;43474;-78
2021/08/28 08:55:29;;;;;;;;;;;16.50;95.40;;;;;;4361296;32;42648;-78
2021/08/28 08:58:18;;;;;;;;;;;16.60;95.40;;;;;;4372190;32;44247;-76
2021/08/28 09:00:59;;;;;;;;;;;16.50;95.40;;;;;;4361586;32;45026;-77
2021/08/28 09:03:27;;;;;;;;;;;16.60;95.50;;;;;;4348680;32;44249;-79
2021/08/28 09:06:00;;;;;;;;;;;16.50;95.40;;;;;;4360887;32;43056;-78
2021/08/28 09:08:28;;;;;;;;;;;16.50;95.40;;;;;;4362150;32;44213;-78
2021/08/28 09:10:55;;;;;;;;;;;16.50;95.50;;;;;;4361904;32;43784;-78
2021/08/28 09:13:28;;;;;;;;;;;16.50;95.50;;;;;;4361815;32;42607;-78
2021/08/28 09:15:57;;;;;;;;;;;16.50;95.50;;;;;;4361085;32;43607;-78
2021/08/28 09:18:30;;;;;;;;;;;16.50;95.40;;;;;;4362381;32;43279;-78
2021/08/28 09:20:57;;;;;;;;;;;16.60;95.50;;;;;;4362081;32;43276;-79
2021/08/28 09:23:39;;;;;;;;;;;16.60;95.50;;;;;;4360707;32;42965;-78
2021/08/28 09:26:24;;;;;;;;;;;16.60;95.50;;;;;;4361899;32;42693;-78
2021/08/28 09:28:57;;;;;;;;;;;16.60;95.50;;;;;;4360802;32;43766;-78
2021/08/28 09:31:42;;;;;;;;;;;16.60;95.50;;;;;;4360468;32;43466;-78
2021/08/28 09:34:15;;;;;;;;;;;16.60;95.50;;;;;;4361130;32;43941;-79
2021/08/28 09:36:53;;;;;;;;;;;16.60;95.50;;;;;;4361565;32;42704;-78
2021/08/28 09:39:21;;;;;;;;;;;16.60;95.50;;;;;;4361515;32;42767;-79
2021/08/28 09:41:59;;;;;;;;;;;16.60;95.50;;;;;;4361363;32;44078;-79
2021/08/28 09:44:26;;;;;;;;;;;16.60;95.50;;;;;;4361103;32;43931;-79
2021/08/28 09:47:07;;;;;;;;;;;16.60;95.50;;;;;;4361712;32;43286;-78
2021/08/28 09:49:34;;;;;;;;;;;16.60;95.60;;;;;;4360632;32;43342;-78
2021/08/28 09:52:04;;;;;;;;;;;16.60;95.50;;;;;;4360743;32;43977;-78
2021/08/28 09:54:35;;;;;;;;;;;16.60;95.60;;;;;;4360588;32;44112;-78
2021/08/28 09:57:06;;;;;;;;;;;16.70;95.60;;;;;;4360239;32;43458;-78
2021/08/28 09:59:33;;;;;;;;;;;16.60;95.60;;;;;;4372772;32;43906;-78
2021/08/28 10:02:11;;;;;;;;;;;16.70;95.60;;;;;;4361408;32;43577;-78
2021/08/28 10:04:48;;;;;;;;;;;16.70;95.70;;;;;;4361792;32;43527;-77
2021/08/28 10:07:23;;;;;;;;;;;16.70;95.70;;;;;;4360740;32;43132;-78
2021/08/28 10:09:57;;;;;;;;;;;16.70;95.70;;;;;;4372457;32;42301;-78
2021/08/28 10:12:32;;;;;;;;;;;16.70;95.70;;;;;;4361640;32;43169;-77
2021/08/28 10:15:04;;;;;;;;;;;16.70;95.70;;;;;;4360569;32;43805;-78
2021/08/28 10:17:31;;;;;;;;;;;16.70;95.70;;;;;;4361002;32;45114;-78
2021/08/28 10:20:02;;;;;;;;;;;16.70;95.70;;;;;;4360966;32;45369;-77
2021/08/28 10:22:33;;;;;;;;;;;16.70;95.70;;;;;;4361088;32;42542;-78
2021/08/28 10:25:04;;;;;;;;;;;16.70;95.60;;;;;;4360239;32;42931;-78
2021/08/28 10:27:34;;;;;;;;;;;16.70;95.70;;;;;;4360125;32;43688;-78
2021/08/28 10:30:01;;;;;;;;;;;16.70;95.70;;;;;;4361067;32;43254;-78
2021/08/28 10:32:28;;;;;;;;;;;16.70;95.70;;;;;;4359821;32;43705;-77
2021/08/28 10:34:58;;;;;;;;;;;16.70;95.70;;;;;;4360446;32;43633;-77
2021/08/28 10:37:28;;;;;;;;;;;16.70;95.70;;;;;;4361137;32;43706;-78
2021/08/28 10:39:58;;;;;;;;;;;16.80;95.70;;;;;;4361019;32;41904;-78
2021/08/28 10:42:30;;;;;;;;;;;16.80;95.80;;;;;;4360174;32;44422;-77
2021/08/28 10:45:04;;;;;;;;;;;16.80;95.70;;;;;;4360625;32;42695;-77
2021/08/28 10:47:33;;;;;;;;;;;16.80;95.70;;;;;;4361039;32;43741;-77
2021/08/28 10:50:11;;;;;;;;;;;16.80;95.70;;;;;;4359326;32;43900;-77
2021/08/28 10:52:47;;;;;;;;;;;16.80;95.70;;;;;;4361003;32;44210;-77
2021/08/28 10:55:23;;;;;;;;;;;16.90;95.80;;;;;;4360871;32;44007;-77
2021/08/28 10:58:08;;;;;;;;;;;16.90;95.70;;;;;;4359623;32;41877;-77
2021/08/28 11:00:45;;;;;;;;;;;16.80;95.70;;;;;;4360899;32;43279;-77
2021/08/28 11:03:21;;;;;;;;;;;16.90;95.70;;;;;;4360372;32;43383;-78
2021/08/28 11:06:14;;;;;;;;;;;16.90;95.70;;;;;;4360810;32;44384;-77
2021/08/28 11:08:48;;;;;;;;;;;16.90;95.70;;;;;;4359332;32;43871;-77
2021/08/28 11:11:18;;;;;;;;;;;16.90;95.70;;;;;;4360062;32;20088;-77
2021/08/28 11:14:09;;;;;;;;;;;16.90;95.70;;;;;;4360609;32;45457;-77
2021/08/28 11:16:42;;;;;;;;;;;16.90;95.70;;;;;;4354851;32;44202;-77
2021/08/28 11:19:33;;;;;;;;;;;16.90;95.70;;;;;;4360462;32;43444;-78
2021/08/28 11:22:04;;;;;;;;;;;16.90;95.70;;;;;;4360095;32;42406;-77
2021/08/28 11:24:36;;;;;;;;;;;16.90;95.70;;;;;;4358979;32;44183;-77
2021/08/28 11:27:06;;;;;;;;;;;16.90;95.70;;;;;;4360029;32;43514;-78
2021/08/28 11:29:46;;;;;;;;;;;16.90;95.70;;;;;;4360295;32;43433;-78
2021/08/28 11:32:22;;;;;;;;;;;17.00;95.80;;;;;;4358981;32;42105;-77
2021/08/28 11:34:53;;;;;;;;;;;17.00;95.80;;;;;;4360450;32;43906;-77
2021/08/28 11:37:29;;;;;;;;;;;16.90;95.80;;;;;;4360511;32;42523;-77
2021/08/28 11:40:00;;;;;;;;;;;16.90;95.80;;;;;;4359018;32;43337;-77
2021/08/28 11:42:27;;;;;;;;;;;16.90;95.80;;;;;;4360777;32;20086;-78
2021/08/28 11:45:03;;;;;;;;;;;17.00;95.90;;;;;;4359323;32;42882;-77
2021/08/28 11:47:33;;;;;;;;;;;17.00;95.90;;;;;;4359657;32;42762;-76
2021/08/28 11:50:11;;;;;;;;;;;17.00;95.90;;;;;;4359245;32;44477;-78
2021/08/28 11:52:40;;;;;;;;;;;17.00;96.00;;;;;;4359429;32;43452;-77
2021/08/28 11:55:10;;;;;;;;;;;17.00;96.00;;;;;;4359887;32;43185;-77
2021/08/28 11:57:40;;;;;;;;;;;17.00;96.00;;;;;;4360117;32;44593;-77
2021/08/28 12:00:11;;;;;;;;;;;17.00;96.00;;;;;;4358517;32;44090;-77
2021/08/28 12:02:41;;;;;;;;;;;17.10;96.10;;;;;;4359555;32;43508;-77
2021/08/28 12:05:16;;;;;;;;;;;17.10;96.00;;;;;;4360183;33;45549;-77
2021/08/28 12:07:50;;;;;;;;;;;17.10;96.00;;;;;;4358610;33;42925;-77
2021/08/28 12:10:21;;;;;;;;;;;17.10;96.00;;;;;;4359487;33;43459;-77
2021/08/28 12:12:55;;;;;;;;;;;17.10;95.90;;;;;;4360589;33;20414;-77
2021/08/28 12:15:23;;;;;;;;;;;17.10;95.90;;;;;;4359512;33;44593;-78
2021/08/28 12:17:53;;;;;;;;;;;17.20;95.90;;;;;;4359812;33;43946;-78
2021/08/28 12:20:25;;;;;;;;;;;17.20;95.90;;;;;;4359994;33;44324;-76
2021/08/28 12:22:53;;;;;;;;;;;17.20;95.90;;;;;;4358461;33;44441;-78
2021/08/28 12:25:26;;;;;;;;;;;17.20;95.90;;;;;;4358853;33;43142;-77
2021/08/28 12:27:54;;;;;;;;;;;17.30;95.90;;;;;;4358920;33;44881;-77
2021/08/28 12:30:26;;;;;;;;;;;17.30;95.80;;;;;;4359729;33;43031;-77
2021/08/28 12:32:56;;;;;;;;;;;17.30;95.80;;;;;;4359913;33;43780;-77
2021/08/28 12:35:23;;;;;;;;;;;17.40;95.80;;;;;;4359837;32;44083;-77
2021/08/28 12:37:50;;;;;;;;;;;17.30;95.80;;;;;;4359541;33;44207;-77
2021/08/28 12:40:21;;;;;;;;;;;17.30;95.70;;;;;;4358585;33;42617;-77
2021/08/28 12:42:48;;;;;;;;;;;17.40;95.70;;;;;;4360026;33;29211;-77
2021/08/28 12:45:21;;;;;;;;;;;17.30;95.70;;;;;;4359703;33;42962;-77
2021/08/28 12:47:48;;;;;;;;;;;17.40;95.70;;;;;;4359298;33;44179;-78
2021/08/28 12:50:23;;;;;;;;;;;17.40;95.60;;;;;;4359293;33;42723;-77
2021/08/28 12:52:50;;;;;;;;;;;17.40;95.50;;;;;;4359337;33;44282;-77
2021/08/28 12:55:21;;;;;;;;;;;17.40;95.50;;;;;;4359298;33;42844;-77
2021/08/28 12:58:02;;;;;;;;;;;17.40;95.50;;;;;;4360700;32;43449;-77
2021/08/28 13:00:33;;;;;;;;;;;17.40;95.50;;;;;;4362534;32;43259;-77
2021/08/28 13:03:06;;;;;;;;;;;17.40;95.50;;;;;;4362260;32;42852;-77
2021/08/28 13:05:33;;;;;;;;;;;17.40;95.50;;;;;;4361411;32;45142;-76
2021/08/28 13:08:04;;;;;;;;;;;17.40;95.40;;;;;;4362000;32;43037;-77
2021/08/28 13:10:34;;;;;;;;;;;17.50;95.40;;;;;;4362310;32;42615;-77
2021/08/28 13:13:08;;;;;;;;;;;17.50;95.40;;;;;;4361194;32;42902;-77
2021/08/28 13:15:38;;;;;;;;;;;17.50;95.30;;;;;;4361829;32;19996;-77
2021/08/28 13:18:12;;;;;;;;;;;17.50;95.10;;;;;;4361809;32;43389;-77
2021/08/28 13:20:46;;;;;;;;;;;17.50;95.20;;;;;;4362182;32;43764;-77
2021/08/28 13:23:16;;;;;;;;;;;17.60;95.20;;;;;;4362299;32;42334;-78
2021/08/28 13:25:47;;;;;;;;;;;17.60;95.20;;;;;;4362071;32;44222;-77
2021/08/28 13:28:18;;;;;;;;;;;17.60;95.20;;;;;;4360791;32;42072;-77
2021/08/28 13:30:49;;;;;;;;;;;17.60;95.30;;;;;;4362025;32;42727;-77
2021/08/28 13:33:29;;;;;;;;;;;17.70;95.20;;;;;;4362260;32;43955;-77
2021/08/28 13:35:58;;;;;;;;;;;17.70;95.10;;;;;;4360966;32;44334;-77
2021/08/28 13:38:25;;;;;;;;;;;17.70;95.00;;;;;;4360521;32;42536;-77
2021/08/28 13:40:56;;;;;;;;;;;17.70;95.00;;;;;;4361616;32;44143;-77
2021/08/28 13:43:27;;;;;;;;;;;17.80;95.00;;;;;;4361688;32;42698;-76
2021/08/28 13:45:58;;;;;;;;;;;17.80;94.90;;;;;;4361463;32;20031;-77
2021/08/28 13:48:26;;;;;;;;;;;17.80;94.90;;;;;;4360885;32;43276;-77
2021/08/28 13:50:55;;;;;;;;;;;17.90;94.90;;;;;;4361735;32;42627;-77
2021/08/28 13:53:22;;;;;;;;;;;17.90;94.70;;;;;;4361862;32;42847;-77
2021/08/28 13:55:52;;;;;;;;;;;17.90;94.70;;;;;;4361645;32;42650;-78
2021/08/28 13:58:24;;;;;;;;;;;17.90;94.60;;;;;;4361243;32;42467;-77
2021/08/28 14:00:51;;;;;;;;;;;18.00;94.70;;;;;;4361772;32;43753;-77
2021/08/28 14:03:18;;;;;;;;;;;18.00;94.30;;;;;;4361042;32;42407;-77
2021/08/28 14:05:48;;;;;;;;;;;18.00;94.50;;;;;;4361682;32;43881;-77
2021/08/28 14:08:16;;;;;;;;;;;18.00;94.60;;;;;;4360291;32;44196;-77
2021/08/28 14:10:43;;;;;;;;;;;18.00;94.70;;;;;;4360737;32;43478;-78
2021/08/28 14:13:10;;;;;;;;;;;18.00;94.70;;;;;;4361330;32;42139;-77
2021/08/28 14:15:37;;;;;;;;;;;18.00;94.70;;;;;;4361357;32;43893;-78
2021/08/28 14:18:05;;;;;;;;;;;18.00;94.80;;;;;;4360244;32;43267;-79
2021/08/28 14:20:35;;;;;;;;;;;18.00;94.80;;;;;;4360445;32;43898;-77
2021/08/28 14:23:02;;;;;;;;;;;18.00;94.80;;;;;;4360877;32;42780;-77
2021/08/28 14:25:32;;;;;;;;;;;17.90;94.80;;;;;;4359795;32;44167;-77
2021/08/28 14:27:59;;;;;;;;;;;17.90;94.80;;;;;;4361165;32;44165;-77
2021/08/28 14:30:26;;;;;;;;;;;17.90;94.80;;;;;;4361211;32;43568;-77
2021/08/28 14:32:56;;;;;;;;;;;17.90;94.80;;;;;;4360698;32;43878;-77
2021/08/28 14:35:33;;;;;;;;;;;17.90;94.80;;;;;;4371757;32;43373;-77